Terminal Aerodrome Forecast
Issued by NWS

Home | Current Version | Previous Version | Text Only | Print | Product List | Glossary On
Versions: 1 2 3 4 5 6 7 8 9 10 11 12 13 14 15 16 17 18 19
000
FTUS43 KEAX 231100
TAFSTJ
TAF
KSTJ 231139Z 2312/2412 18005KT P6SM SKC
      TEMPO 2313/2314 3SM BR
     FM231500 22012KT P6SM SCT150 SCT250
     FM232300 23006KT P6SM FEW250
     FM240600 30006KT P6SM SCT250=

USA.gov is the U.S. government's official web portal to all federal, state and local government web resources and services.